Time;durP1;ratioP1;P1;durP2;ratioP2;P2;SDS_P1;SDS_P2;PMS_P1;PMS_P2;Temp;Humidity;BMP_temperature;BMP_pressure;BME280_temperature;BME280_humidity;BME280_pressure;Samples;Min_cycle;Max_cycle;Signal;HPM_P1;HPM_P2
2023/11/05 10:59:22;;;;;;;4.00;1.60;;;12.40;99.90;;;;;;2258769;23;20237;-70
2023/11/05 11:01:50;;;;;;;4.10;1.63;;;12.20;99.90;;;;;;4877616;29;20234;-72
2023/11/05 11:04:19;;;;;;;4.37;1.50;;;12.20;99.90;;;;;;4880433;29;20215;-72
2023/11/05 11:06:48;;;;;;;3.83;1.93;;;12.10;99.90;;;;;;4878503;29;20284;-72
2023/11/05 11:09:24;;;;;;;5.13;1.43;;;12.20;99.90;;;;;;4871419;29;20244;-74
2023/11/05 11:11:53;;;;;;;2.30;1.40;;;12.30;99.90;;;;;;4862254;29;20246;-72
2023/11/05 11:14:23;;;;;;;4.23;1.33;;;12.40;99.90;;;;;;4861828;29;20303;-72
2023/11/05 11:16:51;;;;;;;3.07;1.33;;;12.50;99.90;;;;;;4861582;29;20227;-73
2023/11/05 11:19:19;;;;;;;3.97;1.30;;;12.50;99.90;;;;;;4862251;29;20247;-73
2023/11/05 11:21:51;;;;;;;2.20;1.03;;;12.50;99.90;;;;;;4876518;29;20215;-73
2023/11/05 11:24:38;;;;;;;1.70;1.13;;;12.60;99.90;;;;;;4872367;29;20223;-72
2023/11/05 11:27:06;;;;;;;5.20;1.30;;;12.70;99.90;;;;;;4861359;29;20239;-72
2023/11/05 11:29:33;;;;;;;3.27;1.27;;;12.70;99.90;;;;;;4873103;29;20536;-72
2023/11/05 11:32:03;;;;;;;4.00;1.40;;;12.80;99.90;;;;;;4861861;29;20243;-73
2023/11/05 11:34:31;;;;;;;1.77;1.10;;;12.80;99.90;;;;;;4864199;29;20690;-73
2023/11/05 11:36:59;;;;;;;1.80;1.00;;;12.80;99.90;;;;;;4871112;29;20235;-74
2023/11/05 11:39:27;;;;;;;3.83;1.20;;;12.80;99.90;;;;;;4868938;29;20246;-72
2023/11/05 11:41:54;;;;;;;2.00;0.90;;;12.70;99.90;;;;;;4867603;29;20212;-72
2023/11/05 11:44:21;;;;;;;1.07;0.73;;;12.70;99.90;;;;;;4880177;29;20310;-72
2023/11/05 11:46:48;;;;;;;2.13;1.03;;;12.60;99.90;;;;;;4873914;29;20308;-72
2023/11/05 11:49:17;;;;;;;3.40;1.30;;;12.70;99.90;;;;;;4873526;29;20216;-72
2023/11/05 11:51:44;;;;;;;1.47;0.93;;;12.50;99.90;;;;;;4861675;29;20354;-72
2023/11/05 11:54:11;;;;;;;2.17;0.87;;;12.50;99.90;;;;;;4873610;29;20267;-72
2023/11/05 11:56:39;;;;;;;2.63;0.90;;;12.70;99.90;;;;;;4867836;29;20254;-72
2023/11/05 11:59:08;;;;;;;1.30;0.70;;;12.70;99.90;;;;;;4866357;29;20216;-72
2023/11/05 12:01:37;;;;;;;2.87;0.80;;;12.60;99.90;;;;;;4861110;29;20253;-72
2023/11/05 12:04:06;;;;;;;2.43;1.03;;;12.60;99.90;;;;;;4866071;29;20276;-72
2023/11/05 12:06:38;;;;;;;2.90;1.00;;;12.60;99.90;;;;;;4876902;29;20225;-71
2023/11/05 12:09:05;;;;;;;2.13;1.17;;;12.50;99.90;;;;;;4871203;29;20212;-71
2023/11/05 12:11:33;;;;;;;2.00;1.07;;;12.60;99.90;;;;;;4866729;29;20242;-72
2023/11/05 12:14:02;;;;;;;2.03;0.90;;;12.60;99.90;;;;;;4871614;29;20230;-72
2023/11/05 12:16:29;;;;;;;2.63;0.93;;;12.50;99.90;;;;;;4862190;29;20227;-72
2023/11/05 12:18:56;;;;;;;2.77;1.10;;;12.60;99.90;;;;;;4861255;29;20208;-72
2023/11/05 12:21:23;;;;;;;1.67;0.87;;;12.60;99.90;;;;;;4861039;29;20205;-72
2023/11/05 12:23:53;;;;;;;1.83;0.70;;;12.50;99.90;;;;;;4868582;29;20207;-76
2023/11/05 12:26:20;;;;;;;2.30;0.90;;;12.60;99.90;;;;;;4866586;29;20236;-73
2023/11/05 12:28:47;;;;;;;3.43;1.07;;;12.50;99.90;;;;;;4869915;29;20208;-78
2023/11/05 12:31:15;;;;;;;2.90;1.00;;;12.20;99.90;;;;;;4860058;29;20292;-72
2023/11/05 12:33:42;;;;;;;4.27;1.20;;;12.00;99.90;;;;;;4861017;29;20223;-75
2023/11/05 12:36:09;;;;;;;3.97;1.20;;;12.00;99.90;;;;;;4861379;29;20339;-77
2023/11/05 12:38:36;;;;;;;4.27;1.30;;;12.10;99.90;;;;;;4860526;29;20223;-72
2023/11/05 12:41:05;;;;;;;3.77;1.23;;;12.00;99.90;;;;;;4861063;29;20315;-72
2023/11/05 12:43:32;;;;;;;1.97;1.10;;;11.90;99.90;;;;;;4861057;29;20302;-72
2023/11/05 12:45:59;;;;;;;4.07;1.60;;;11.80;99.90;;;;;;4861067;29;20216;-71
2023/11/05 12:48:27;;;;;;;3.93;1.30;;;11.80;99.90;;;;;;4860966;29;20235;-72
2023/11/05 12:50:54;;;;;;;3.13;1.50;;;11.70;99.90;;;;;;4861104;29;20291;-72
2023/11/05 12:53:22;;;;;;;3.37;1.43;;;11.50;99.90;;;;;;4860456;29;20370;-72
2023/11/05 12:55:49;;;;;;;2.53;1.43;;;11.50;99.90;;;;;;4860052;29;20300;-72
2023/11/05 12:58:18;;;;;;;6.53;1.40;;;11.40;99.90;;;;;;4860365;29;20219;-75
2023/11/05 13:00:45;;;;;;;1.63;1.00;;;11.40;99.90;;;;;;4860185;29;20671;-72
2023/11/05 13:03:12;;;;;;;2.13;1.03;;;11.30;99.90;;;;;;4860775;29;20264;-72
2023/11/05 13:05:40;;;;;;;2.27;1.13;;;11.40;99.90;;;;;;4860656;29;20215;-74
2023/11/05 13:08:09;;;;;;;3.80;1.30;;;11.50;99.90;;;;;;4865861;29;20228;-73
2023/11/05 13:10:38;;;;;;;2.97;1.50;;;11.60;99.90;;;;;;4868255;29;20219;-71
2023/11/05 13:13:05;;;;;;;4.63;1.20;;;11.70;99.90;;;;;;4867890;29;20219;-71
2023/11/05 13:15:34;;;;;;;3.33;1.60;;;11.80;99.90;;;;;;4869259;29;20208;-72
2023/11/05 13:18:02;;;;;;;2.53;1.23;;;11.90;99.90;;;;;;4868170;29;20257;-72
2023/11/05 13:20:29;;;;;;;2.70;1.20;;;12.10;99.90;;;;;;4864425;29;20203;-74
2023/11/05 13:22:56;;;;;;;2.47;1.17;;;12.30;99.90;;;;;;4860518;29;20277;-71
2023/11/05 13:25:23;;;;;;;2.40;1.30;;;12.30;99.90;;;;;;4860808;29;20272;-72
2023/11/05 13:27:50;;;;;;;3.00;1.30;;;12.40;99.90;;;;;;4860507;29;20457;-72
2023/11/05 13:30:17;;;;;;;3.57;1.00;;;12.50;99.90;;;;;;4860637;29;20215;-74
2023/11/05 13:32:46;;;;;;;3.60;1.13;;;12.40;99.90;;;;;;4860721;29;20246;-72
2023/11/05 13:35:17;;;;;;;2.07;0.90;;;12.30;99.90;;;;;;4860363;29;20310;-72
2023/11/05 13:37:45;;;;;;;2.17;0.90;;;12.20;99.90;;;;;;4860333;29;20235;-71
2023/11/05 13:40:13;;;;;;;2.37;1.10;;;12.30;99.90;;;;;;4860665;29;20302;-72
2023/11/05 13:42:40;;;;;;;2.67;0.97;;;12.40;99.90;;;;;;4867666;29;20306;-72
2023/11/05 13:45:09;;;;;;;2.17;0.80;;;12.50;99.90;;;;;;4865737;29;20659;-76
2023/11/05 13:47:37;;;;;;;1.03;0.70;;;12.60;99.90;;;;;;4869757;29;20590;-75
2023/11/05 13:50:07;;;;;;;2.50;0.90;;;12.50;99.90;;;;;;4868891;29;20211;-73
2023/11/05 13:52:34;;;;;;;1.27;0.57;;;12.50;99.90;;;;;;4880875;29;20239;-72
2023/11/05 13:55:02;;;;;;;4.37;0.90;;;12.50;99.90;;;;;;4882201;29;20301;-73
2023/11/05 13:57:30;;;;;;;1.47;0.60;;;12.50;99.90;;;;;;4871655;29;20227;-72
2023/11/05 13:59:58;;;;;;;2.03;0.70;;;12.70;99.90;;;;;;4876399;29;20258;-73
2023/11/05 14:02:25;;;;;;;3.90;0.90;;;12.70;99.90;;;;;;4872980;29;20227;-72
2023/11/05 14:04:52;;;;;;;6.03;1.47;;;12.80;99.90;;;;;;4881258;29;20208;-72
2023/11/05 14:07:20;;;;;;;1.83;0.60;;;12.80;99.90;;;;;;4878287;29;20583;-72
2023/11/05 14:09:47;;;;;;;3.23;0.90;;;12.70;99.90;;;;;;4873370;29;20294;-72
2023/11/05 14:12:14;;;;;;;3.00;0.60;;;12.60;99.90;;;;;;4877566;29;20235;-73
2023/11/05 14:14:41;;;;;;;2.10;0.90;;;12.60;99.90;;;;;;4879261;29;20240;-72
2023/11/05 14:17:09;;;;;;;2.97;0.50;;;12.60;99.90;;;;;;4864067;29;20228;-72
2023/11/05 14:19:36;;;;;;;2.70;0.60;;;12.60;99.90;;;;;;4871198;29;20600;-72
2023/11/05 14:22:03;;;;;;;1.27;0.63;;;12.50;99.90;;;;;;4875976;29;20226;-72
2023/11/05 14:24:32;;;;;;;0.47;0.40;;;12.40;99.90;;;;;;4871634;29;20584;-75
2023/11/05 14:26:59;;;;;;;2.13;0.67;;;12.30;99.90;;;;;;4870262;29;20228;-74
2023/11/05 14:29:27;;;;;;;3.23;0.70;;;12.30;99.90;;;;;;4871434;29;20724;-74
2023/11/05 14:31:54;;;;;;;0.90;0.43;;;12.30;99.90;;;;;;4875220;29;20330;-72
2023/11/05 14:34:21;;;;;;;1.60;0.40;;;12.30;99.90;;;;;;4881931;29;20203;-72
2023/11/05 14:36:49;;;;;;;0.70;0.50;;;12.30;99.90;;;;;;4881845;29;20238;-72
2023/11/05 14:39:16;;;;;;;3.27;0.70;;;12.30;99.90;;;;;;4881753;29;20215;-73
2023/11/05 14:41:44;;;;;;;1.83;0.70;;;12.40;99.90;;;;;;4880852;29;20563;-73
2023/11/05 14:44:11;;;;;;;1.93;1.00;;;12.50;99.90;;;;;;4881632;29;20219;-72
2023/11/05 14:46:38;;;;;;;2.17;0.70;;;12.50;99.90;;;;;;4881169;29;20713;-71
2023/11/05 14:49:05;;;;;;;0.90;0.60;;;12.60;99.90;;;;;;4881587;29;20690;-71
2023/11/05 14:51:32;;;;;;;2.10;0.60;;;12.70;99.90;;;;;;4881210;29;20725;-71
2023/11/05 14:53:59;;;;;;;2.80;1.03;;;12.60;99.90;;;;;;4880518;29;20306;-77
2023/11/05 14:56:25;;;;;;;3.70;0.80;;;12.50;99.90;;;;;;4881199;29;20318;-72
2023/11/05 14:58:54;;;;;;;2.23;0.60;;;12.50;99.90;;;;;;4881231;29;20219;-72
2023/11/05 15:01:22;;;;;;;0.97;0.43;;;12.40;99.90;;;;;;4880477;29;20222;-72
2023/11/05 15:03:50;;;;;;;1.50;0.57;;;12.40;99.90;;;;;;4881170;29;20285;-75
2023/11/05 15:06:18;;;;;;;1.40;0.57;;;12.40;99.90;;;;;;4881295;29;20231;-72
2023/11/05 15:08:45;;;;;;;1.43;0.70;;;12.30;99.90;;;;;;4881455;29;20257;-72
2023/11/05 15:11:12;;;;;;;8.90;0.60;;;12.30;99.90;;;;;;4881079;29;20243;-71
2023/11/05 15:13:39;;;;;;;1.20;0.40;;;12.10;99.90;;;;;;4881217;29;20713;-71
2023/11/05 15:16:07;;;;;;;1.47;0.50;;;12.10;99.90;;;;;;4881027;29;20254;-72
2023/11/05 15:18:34;;;;;;;1.27;0.50;;;12.00;99.90;;;;;;4881085;29;20211;-71
2023/11/05 15:21:01;;;;;;;0.87;0.40;;;11.90;99.90;;;;;;4881110;29;20302;-72
2023/11/05 15:23:29;;;;;;;1.27;0.60;;;11.90;99.90;;;;;;4880978;29;20682;-71
2023/11/05 15:25:56;;;;;;;0.70;0.53;;;11.90;99.90;;;;;;4880948;29;20222;-72
2023/11/05 15:28:26;;;;;;;1.80;0.80;;;11.90;99.90;;;;;;4881194;29;20301;-71
2023/11/05 15:30:53;;;;;;;0.93;0.40;;;11.80;99.90;;;;;;4880995;29;20573;-71
2023/11/05 15:33:25;;;;;;;1.13;0.40;;;11.80;99.90;;;;;;4880956;29;20247;-72
2023/11/05 15:35:52;;;;;;;0.57;0.37;;;11.80;99.90;;;;;;4880586;29;20211;-71
2023/11/05 15:38:19;;;;;;;1.20;0.30;;;11.80;99.90;;;;;;4881067;29;20271;-72
2023/11/05 15:40:46;;;;;;;2.43;0.50;;;11.70;99.90;;;;;;4880610;29;20686;-71
2023/11/05 15:43:13;;;;;;;1.07;0.40;;;11.80;99.90;;;;;;4880789;29;20215;-72
2023/11/05 15:45:40;;;;;;;2.07;0.70;;;11.70;99.90;;;;;;4880569;29;20332;-71
2023/11/05 15:48:07;;;;;;;1.17;0.37;;;11.70;99.90;;;;;;4880593;29;20231;-72
2023/11/05 15:50:35;;;;;;;0.43;0.30;;;11.70;99.90;;;;;;4880437;29;20670;-72
2023/11/05 15:53:03;;;;;;;3.30;0.37;;;11.60;99.90;;;;;;4880227;29;20327;-72
2023/11/05 15:55:30;;;;;;;0.60;0.50;;;11.70;99.90;;;;;;4880634;29;20215;-76
2023/11/05 15:57:58;;;;;;;1.97;0.60;;;11.60;99.90;;;;;;4880323;29;20267;-71
2023/11/05 16:00:25;;;;;;;2.70;0.70;;;11.50;99.90;;;;;;4880211;29;20225;-71
2023/11/05 16:02:51;;;;;;;2.03;0.70;;;11.50;99.90;;;;;;4880379;29;20245;-71
2023/11/05 16:05:19;;;;;;;1.57;0.53;;;11.50;99.90;;;;;;4880126;29;20211;-71
2023/11/05 16:07:48;;;;;;;1.03;0.37;;;11.40;99.90;;;;;;4880357;29;20231;-71
2023/11/05 16:10:15;;;;;;;1.27;0.50;;;11.40;99.90;;;;;;4880207;29;20203;-72
2023/11/05 16:12:42;;;;;;;1.07;0.40;;;11.30;99.90;;;;;;4878886;29;20235;-71
2023/11/05 16:15:11;;;;;;;1.07;0.80;;;11.40;99.90;;;;;;4879866;29;20211;-71
2023/11/05 16:17:38;;;;;;;1.50;0.63;;;11.40;99.90;;;;;;4879587;29;20711;-71
2023/11/05 16:20:06;;;;;;;1.10;0.67;;;11.30;99.90;;;;;;4879898;29;20211;-72
2023/11/05 16:22:32;;;;;;;4.47;1.17;;;11.30;99.90;;;;;;4880280;29;20223;-77
2023/11/05 16:25:01;;;;;;;1.77;0.43;;;11.30;99.90;;;;;;4880162;29;20488;-72
2023/11/05 16:27:27;;;;;;;1.13;0.70;;;11.30;99.90;;;;;;4879976;29;20231;-72
2023/11/05 16:29:55;;;;;;;2.13;0.90;;;11.20;99.90;;;;;;4879818;29;20574;-72
2023/11/05 16:32:22;;;;;;;1.23;0.63;;;11.10;99.90;;;;;;4879717;29;20239;-72
2023/11/05 16:34:48;;;;;;;3.97;0.70;;;11.10;99.90;;;;;;4879984;29;20211;-71
2023/11/05 16:37:15;;;;;;;5.07;0.90;;;11.10;99.90;;;;;;4879508;29;20781;-71
2023/11/05 16:39:43;;;;;;;1.90;0.60;;;11.20;99.90;;;;;;4879760;29;20221;-71
2023/11/05 16:42:11;;;;;;;2.83;1.10;;;11.10;99.90;;;;;;4879418;29;20218;-71
2023/11/05 16:44:38;;;;;;;4.03;1.30;;;11.10;99.90;;;;;;4879206;29;20215;-71
2023/11/05 16:47:05;;;;;;;5.30;1.80;;;11.10;99.90;;;;;;4879289;29;20586;-73
2023/11/05 16:49:32;;;;;;;4.50;1.30;;;11.00;99.90;;;;;;4879759;29;20222;-71
2023/11/05 16:51:59;;;;;;;3.37;0.73;;;11.00;99.90;;;;;;4879376;29;20215;-71
2023/11/05 16:54:26;;;;;;;6.13;1.10;;;11.00;99.90;;;;;;4879156;29;20211;-71
2023/11/05 16:56:53;;;;;;;3.20;1.20;;;11.10;99.90;;;;;;4879869;29;20235;-71
2023/11/05 16:59:21;;;;;;;2.67;1.20;;;11.10;99.90;;;;;;4879494;29;20210;-71
2023/11/05 17:01:49;;;;;;;3.13;1.00;;;11.20;99.90;;;;;;4878964;29;20317;-72
2023/11/05 17:04:18;;;;;;;5.50;1.17;;;11.20;99.90;;;;;;4879008;29;20222;-71
2023/11/05 17:06:45;;;;;;;2.73;1.00;;;11.10;99.90;;;;;;4879489;29;20239;-72
2023/11/05 17:09:12;;;;;;;2.77;0.93;;;11.10;99.90;;;;;;4879359;29;20211;-71
2023/11/05 17:11:42;;;;;;;2.03;0.80;;;11.20;99.90;;;;;;4879129;29;20230;-71
2023/11/05 17:14:10;;;;;;;2.90;0.80;;;11.20;99.90;;;;;;4877268;29;20333;-71
2023/11/05 17:16:42;;;;;;;2.73;1.30;;;11.30;99.90;;;;;;4870752;29;20239;-71
2023/11/05 17:19:09;;;;;;;3.43;1.73;;;11.30;99.90;;;;;;4872557;29;20293;-71
2023/11/05 17:21:37;;;;;;;1.80;0.90;;;11.40;99.90;;;;;;4870600;29;20235;-72
2023/11/05 17:29:04;;;;;;;7.57;1.77;;;11.60;99.90;;;;;;4910599;23;20242;-75
2023/11/05 17:31:32;;;;;;;2.70;1.20;;;11.60;99.90;;;;;;4899732;29;20214;-74
2023/11/05 17:34:02;;;;;;;4.67;1.30;;;11.70;99.90;;;;;;4898306;29;20233;-74
2023/11/05 17:36:29;;;;;;;4.00;1.20;;;11.70;99.90;;;;;;4885891;29;20207;-74
2023/11/05 17:38:56;;;;;;;3.90;0.90;;;11.70;99.90;;;;;;4886274;29;20274;-75
2023/11/05 17:41:23;;;;;;;3.20;1.17;;;11.70;99.90;;;;;;4887286;29;20297;-74
2023/11/05 17:43:49;;;;;;;5.07;1.07;;;11.60;99.90;;;;;;4888324;29;20217;-74
2023/11/05 17:46:18;;;;;;;1.17;0.60;;;11.60;99.90;;;;;;4882963;29;20221;-73
2023/11/05 17:48:45;;;;;;;3.50;1.07;;;11.50;99.90;;;;;;4887304;29;20210;-75
2023/11/05 17:51:13;;;;;;;2.07;0.97;;;11.30;99.90;;;;;;4894595;29;20214;-74
2023/11/05 17:53:40;;;;;;;2.83;0.70;;;11.20;99.90;;;;;;4892902;29;20303;-73
2023/11/05 17:56:09;;;;;;;4.73;0.60;;;11.10;99.90;;;;;;4900047;29;20256;-74
2023/11/05 17:58:37;;;;;;;1.07;0.67;;;11.10;99.90;;;;;;4892884;29;20277;-74
2023/11/05 18:01:05;;;;;;;2.10;0.50;;;11.20;99.90;;;;;;4889478;29;20207;-73
2023/11/05 18:03:31;;;;;;;2.40;0.97;;;11.00;99.90;;;;;;4883794;29;20739;-73
2023/11/05 18:05:58;;;;;;;1.40;0.57;;;10.90;99.90;;;;;;4888879;29;20226;-73
2023/11/05 18:08:27;;;;;;;2.40;0.70;;;10.80;99.90;;;;;;4888514;29;20215;-74
2023/11/05 18:10:54;;;;;;;3.87;0.80;;;10.80;99.90;;;;;;4898285;29;20297;-73
2023/11/05 18:13:21;;;;;;;1.37;0.93;;;10.80;99.90;;;;;;4897331;29;20329;-73
2023/11/05 18:15:48;;;;;;;1.93;0.73;;;10.80;99.90;;;;;;4893119;29;20765;-73
2023/11/05 18:18:15;;;;;;;0.97;0.50;;;10.70;99.90;;;;;;4891525;29;20748;-72
2023/11/05 18:20:42;;;;;;;2.23;0.80;;;10.80;99.90;;;;;;4891525;29;20764;-73
2023/11/05 18:23:09;;;;;;;2.03;0.80;;;10.70;99.90;;;;;;4897828;29;20210;-71
2023/11/05 18:25:37;;;;;;;4.40;1.93;;;10.70;99.90;;;;;;4898447;29;20234;-71
2023/11/05 18:28:04;;;;;;;2.83;0.90;;;10.70;99.90;;;;;;4893448;29;20227;-72
2023/11/05 18:30:31;;;;;;;4.70;1.77;;;10.60;99.90;;;;;;4898779;29;20207;-72
2023/11/05 18:32:58;;;;;;;2.47;0.73;;;10.60;99.90;;;;;;4896240;29;20317;-72
2023/11/05 18:35:25;;;;;;;2.00;0.90;;;10.60;99.90;;;;;;4897521;29;20570;-75
2023/11/05 18:37:52;;;;;;;2.03;0.70;;;10.70;99.90;;;;;;4894732;29;20240;-75
2023/11/05 18:40:19;;;;;;;5.03;1.10;;;10.60;99.90;;;;;;4899466;29;20293;-75
2023/11/05 18:42:47;;;;;;;2.23;0.83;;;10.60;99.90;;;;;;4896602;29;20214;-76
2023/11/05 18:45:14;;;;;;;2.63;0.80;;;10.50;99.90;;;;;;4899289;29;20728;-76
2023/11/05 18:47:40;;;;;;;4.03;1.20;;;10.40;99.90;;;;;;4897155;29;20213;-75
2023/11/05 18:50:08;;;;;;;3.53;1.20;;;10.40;99.90;;;;;;4893129;29;20218;-73
2023/11/05 18:52:35;;;;;;;3.10;1.17;;;10.30;99.90;;;;;;4891168;29;20202;-75
2023/11/05 18:55:03;;;;;;;3.60;1.10;;;10.20;99.90;;;;;;4899491;29;20261;-74
2023/11/05 18:57:31;;;;;;;2.10;1.00;;;10.20;99.90;;;;;;4895957;29;20211;-75
2023/11/05 18:59:59;;;;;;;3.73;1.10;;;10.20;99.90;;;;;;4891356;29;20219;-74
2023/11/05 19:02:27;;;;;;;6.30;1.00;;;10.10;99.90;;;;;;4896778;29;20203;-75
2023/11/05 19:04:55;;;;;;;4.77;1.17;;;10.10;99.90;;;;;;4891812;29;20246;-74
2023/11/05 19:07:22;;;;;;;2.77;0.77;;;10.10;99.90;;;;;;4897013;29;20230;-75
2023/11/05 19:09:48;;;;;;;6.47;2.10;;;10.10;99.90;;;;;;4891629;29;20297;-74
2023/11/05 19:12:15;;;;;;;3.63;1.27;;;10.00;99.90;;;;;;4898078;29;20241;-74
2023/11/05 19:14:43;;;;;;;2.97;1.23;;;10.10;99.90;;;;;;4891647;29;20416;-75
2023/11/05 19:17:12;;;;;;;2.17;0.90;;;10.00;99.90;;;;;;4890855;29;20219;-74
2023/11/05 19:19:39;;;;;;;1.73;0.73;;;10.00;99.90;;;;;;4891012;29;20579;-75
2023/11/05 19:22:09;;;;;;;2.67;1.00;;;10.10;99.90;;;;;;4888767;29;20692;-74
2023/11/05 19:24:37;;;;;;;4.93;1.00;;;10.10;99.90;;;;;;4896114;29;20230;-76
2023/11/05 19:27:04;;;;;;;7.07;1.13;;;10.10;99.90;;;;;;4899385;29;20301;-76
2023/11/05 19:29:31;;;;;;;5.63;0.73;;;10.10;99.90;;;;;;4898538;29;20252;-75
2023/11/05 19:31:58;;;;;;;3.17;0.80;;;10.10;99.90;;;;;;4898477;29;20206;-76
2023/11/05 19:34:26;;;;;;;2.60;0.97;;;10.20;99.90;;;;;;4898260;29;20676;-75
2023/11/05 19:36:53;;;;;;;2.53;0.77;;;10.10;99.90;;;;;;4899118;29;20255;-74
2023/11/05 19:39:20;;;;;;;1.27;0.60;;;10.10;99.90;;;;;;4898298;29;21002;-76
2023/11/05 19:41:47;;;;;;;1.57;0.60;;;10.20;99.90;;;;;;4898612;29;20213;-74
2023/11/05 19:44:15;;;;;;;2.67;1.53;;;10.20;99.90;;;;;;4897963;29;20230;-74
2023/11/05 19:46:42;;;;;;;4.47;1.23;;;10.20;99.90;;;;;;4898373;29;20238;-74
2023/11/05 19:49:10;;;;;;;4.47;1.27;;;10.20;99.90;;;;;;4898065;29;20207;-76
2023/11/05 19:51:38;;;;;;;2.23;1.00;;;10.20;99.90;;;;;;4896269;29;20211;-74
2023/11/05 19:54:07;;;;;;;2.43;1.00;;;10.20;99.90;;;;;;4886688;29;20238;-75
2023/11/05 19:56:34;;;;;;;0.97;0.53;;;10.20;99.90;;;;;;4898406;29;20238;-74
2023/11/05 19:59:04;;;;;;;2.27;0.90;;;10.30;99.90;;;;;;4897448;29;20746;-75
2023/11/05 20:01:31;;;;;;;1.60;0.63;;;10.20;99.90;;;;;;4897622;29;20258;-75
2023/11/05 20:04:01;;;;;;;1.53;0.73;;;10.30;99.90;;;;;;4897884;29;20210;-76
2023/11/05 20:06:28;;;;;;;4.37;1.00;;;10.30;99.90;;;;;;4897752;29;20293;-75
2023/11/05 20:08:58;;;;;;;4.07;1.20;;;10.40;99.90;;;;;;4897755;29;20211;-75
2023/11/05 20:11:24;;;;;;;4.60;1.40;;;10.40;99.90;;;;;;4897832;29;20217;-75
2023/11/05 20:13:51;;;;;;;1.07;0.57;;;10.50;99.90;;;;;;4897300;29;20266;-75
2023/11/05 20:16:18;;;;;;;4.00;0.50;;;10.40;99.90;;;;;;4897665;29;20655;-76
2023/11/05 20:18:45;;;;;;;1.20;0.40;;;10.40;99.90;;;;;;4885427;29;20735;-74
2023/11/05 20:21:13;;;;;;;1.70;0.87;;;10.20;99.90;;;;;;4897311;29;20632;-74
2023/11/05 20:23:40;;;;;;;3.77;1.57;;;10.20;99.90;;;;;;4897910;29;20244;-74
2023/11/05 20:26:08;;;;;;;2.00;0.80;;;10.10;99.90;;;;;;4897667;29;20317;-75
2023/11/05 20:28:35;;;;;;;2.50;0.83;;;10.10;99.90;;;;;;4897278;29;20225;-75
2023/11/05 20:31:02;;;;;;;7.17;0.93;;;10.10;99.90;;;;;;4897015;29;20213;-75
2023/11/05 20:33:29;;;;;;;3.47;0.70;;;10.20;99.90;;;;;;4897654;29;20234;-72
2023/11/05 20:35:56;;;;;;;2.30;0.60;;;10.20;99.90;;;;;;4897433;29;20269;-72
2023/11/05 20:38:23;;;;;;;1.60;0.90;;;10.20;99.90;;;;;;4897575;29;20744;-73
2023/11/05 20:40:49;;;;;;;2.27;0.70;;;10.20;99.90;;;;;;4897347;29;20297;-74
2023/11/05 20:43:18;;;;;;;2.03;0.43;;;10.20;99.90;;;;;;4897390;29;20297;-74
2023/11/05 20:45:45;;;;;;;2.50;1.27;;;10.10;99.90;;;;;;4896908;29;20230;-74
2023/11/05 20:48:12;;;;;;;4.17;0.80;;;10.20;99.90;;;;;;4897371;29;20407;-73
2023/11/05 20:50:40;;;;;;;2.30;0.90;;;10.20;99.90;;;;;;4897422;29;20274;-75
2023/11/05 20:53:07;;;;;;;4.23;0.93;;;10.30;99.90;;;;;;4897199;29;20305;-73
2023/11/05 20:55:36;;;;;;;2.07;0.80;;;10.30;99.90;;;;;;4897155;29;20658;-72
2023/11/05 20:58:06;;;;;;;2.63;0.70;;;10.40;99.90;;;;;;4897342;29;20214;-74
2023/11/05 21:00:35;;;;;;;2.60;0.60;;;10.40;99.90;;;;;;4896854;29;20271;-74
2023/11/05 21:03:03;;;;;;;2.77;0.50;;;10.30;99.90;;;;;;4897318;29;20206;-74
2023/11/05 21:05:29;;;;;;;2.20;0.60;;;10.40;99.90;;;;;;4896654;29;20577;-76
2023/11/05 21:07:58;;;;;;;3.03;0.77;;;10.40;99.90;;;;;;4897197;29;20262;-75
2023/11/05 21:10:26;;;;;;;5.53;1.00;;;10.40;99.90;;;;;;4897318;29;20290;-74
2023/11/05 21:12:53;;;;;;;2.37;0.90;;;10.40;99.90;;;;;;4897767;29;20215;-75
2023/11/05 21:15:20;;;;;;;1.87;0.50;;;10.40;99.90;;;;;;4897113;29;20337;-73
2023/11/05 21:17:48;;;;;;;4.93;0.97;;;10.50;99.90;;;;;;4897425;29;20214;-75
2023/11/05 21:20:15;;;;;;;3.53;0.43;;;10.40;99.90;;;;;;4897164;29;20210;-74
2023/11/05 21:22:43;;;;;;;2.90;0.70;;;10.40;99.90;;;;;;4896900;29;20757;-73
2023/11/05 21:25:11;;;;;;;1.63;0.40;;;10.40;99.90;;;;;;4897370;29;20238;-74
2023/11/05 21:27:39;;;;;;;2.07;0.50;;;10.40;99.90;;;;;;4897253;29;20222;-75
2023/11/05 21:30:09;;;;;;;3.03;0.70;;;10.40;99.90;;;;;;4897342;29;20208;-74
2023/11/05 21:32:36;;;;;;;2.37;0.60;;;10.30;99.90;;;;;;4896940;29;20221;-73
2023/11/05 21:35:05;;;;;;;1.87;0.60;;;10.30;99.90;;;;;;4896684;29;20238;-75
2023/11/05 21:37:32;;;;;;;2.33;0.83;;;10.30;99.90;;;;;;4896952;29;20246;-74
2023/11/05 21:39:59;;;;;;;0.83;0.40;;;10.40;99.90;;;;;;4896975;29;20238;-74
2023/11/05 21:42:26;;;;;;;1.47;0.43;;;10.40;99.90;;;;;;4896907;29;20619;-75
2023/11/05 21:44:53;;;;;;;3.20;0.60;;;10.30;99.90;;;;;;4897087;29;20223;-74
2023/11/05 21:47:21;;;;;;;5.63;0.50;;;10.30;99.90;;;;;;4896663;29;20206;-74
2023/11/05 21:49:47;;;;;;;3.43;0.50;;;10.30;99.90;;;;;;4896653;29;20214;-74
2023/11/05 21:52:16;;;;;;;3.13;0.80;;;10.30;99.90;;;;;;4896839;29;20258;-73
2023/11/05 21:54:44;;;;;;;2.03;0.50;;;10.30;99.90;;;;;;4896872;29;20246;-75
2023/11/05 21:57:11;;;;;;;0.77;0.40;;;10.40;99.90;;;;;;4896757;29;20262;-73
2023/11/05 21:59:38;;;;;;;5.43;0.67;;;10.40;99.90;;;;;;4897021;29;20294;-74
2023/11/05 22:02:05;;;;;;;3.77;0.50;;;10.40;99.90;;;;;;4896216;29;20218;-73
2023/11/05 22:04:32;;;;;;;1.73;0.63;;;10.50;99.90;;;;;;4896427;29;20234;-73
2023/11/05 22:06:59;;;;;;;6.30;0.70;;;10.50;99.90;;;;;;4896588;29;20214;-72
2023/11/05 22:09:28;;;;;;;3.37;0.80;;;10.50;99.90;;;;;;4896624;29;20217;-73
2023/11/05 22:11:55;;;;;;;2.53;0.63;;;10.60;99.90;;;;;;4900089;29;20221;-73
2023/11/05 22:14:22;;;;;;;3.13;1.90;;;10.60;99.90;;;;;;4900230;29;20353;-73
2023/11/05 22:16:49;;;;;;;3.70;0.47;;;10.60;99.90;;;;;;4899920;29;20267;-73
2023/11/05 22:19:17;;;;;;;2.43;0.43;;;10.60;99.90;;;;;;4891107;29;20206;-72
2023/11/05 22:21:46;;;;;;;2.63;0.47;;;10.60;99.90;;;;;;4899491;29;20249;-72
2023/11/05 22:24:14;;;;;;;2.27;1.47;;;10.70;99.90;;;;;;4899695;29;20273;-72
2023/11/05 22:26:43;;;;;;;1.27;0.50;;;10.60;99.90;;;;;;4899623;29;20214;-72
2023/11/05 22:29:11;;;;;;;1.93;0.50;;;10.60;99.90;;;;;;4899881;29;20627;-72
2023/11/05 22:31:39;;;;;;;1.07;0.30;;;10.60;99.90;;;;;;4900357;29;20206;-72
2023/11/05 22:34:07;;;;;;;3.27;0.60;;;10.50;99.90;;;;;;4899780;29;20822;-74
2023/11/05 22:36:34;;;;;;;4.43;0.80;;;10.50;99.90;;;;;;4899745;29;20614;-72
2023/11/05 22:39:01;;;;;;;2.83;0.53;;;10.60;99.90;;;;;;4896516;29;20238;-74
2023/11/05 22:41:28;;;;;;;6.03;0.70;;;10.60;99.90;;;;;;4894522;29;20280;-75
2023/11/05 22:43:56;;;;;;;1.37;0.30;;;10.60;99.90;;;;;;4898953;29;20202;-73
